Time;durP1;ratioP1;P1;durP2;ratioP2;P2;SDS_P1;SDS_P2;PMS_P1;PMS_P2;Temp;Humidity;BMP_temperature;BMP_pressure;BME280_temperature;BME280_humidity;BME280_pressure;Samples;Min_cycle;Max_cycle;Signal;HPM_P1;HPM_P2
2022/07/10 00:01:48;;;;;;;11.32;1.73;;;;;;;16.53;86.83;102266.94;5049548;28;20048;-78
2022/07/10 00:04:15;;;;;;;8.93;2.10;;;;;;;16.52;88.20;102253.34;5050066;28;20511;-77
2022/07/10 00:06:42;;;;;;;5.35;1.48;;;;;;;16.60;87.86;102258.53;5048961;28;20080;-77
2022/07/10 00:09:09;;;;;;;9.88;1.88;;;;;;;16.66;87.34;102256.94;5046221;28;20560;-78
2022/07/10 00:11:35;;;;;;;7.95;1.45;;;;;;;16.71;87.32;102250.91;5052520;28;20473;-77
2022/07/10 00:14:02;;;;;;;10.20;1.40;;;;;;;16.74;86.28;102254.94;5046474;28;20052;-76
2022/07/10 00:16:28;;;;;;;7.78;1.42;;;;;;;16.77;86.48;102256.94;5045220;28;20052;-77
2022/07/10 00:18:55;;;;;;;6.90;1.50;;;;;;;16.74;86.46;102260.53;5045117;28;20080;-77
2022/07/10 00:21:22;;;;;;;6.72;1.40;;;;;;;16.80;86.92;102256.09;5048659;28;20053;-75
2022/07/10 00:23:48;;;;;;;8.57;1.40;;;;;;;16.83;86.50;102252.50;5051623;28;20097;-77
2022/07/10 00:26:15;;;;;;;4.50;1.85;;;;;;;16.87;85.79;102258.91;5049256;28;20052;-78
2022/07/10 00:28:41;;;;;;;5.82;1.40;;;;;;;16.91;86.23;102254.09;5049583;28;20057;-79
2022/07/10 00:31:10;;;;;;;8.30;1.55;;;;;;;16.80;85.72;102242.94;5046224;28;20044;-76
2022/07/10 00:33:37;;;;;;;8.60;2.03;;;;;;;16.73;85.91;102242.13;5052629;28;20052;-78
2022/07/10 00:36:06;;;;;;;5.28;1.40;;;;;;;16.70;85.93;102232.56;5049031;28;20767;-76
2022/07/10 00:38:33;;;;;;;5.03;1.48;;;;;;;16.61;87.19;102231.41;5046380;28;20049;-76
2022/07/10 00:40:59;;;;;;;11.07;1.77;;;;;;;16.55;87.79;102233.00;5048757;28;20040;-76
2022/07/10 00:43:26;;;;;;;9.00;1.73;;;;;;;16.47;89.48;102237.78;5042876;28;20057;-78
2022/07/10 00:45:52;;;;;;;7.50;1.90;;;;;;;16.44;89.16;102235.00;5048671;28;20765;-77
2022/07/10 00:48:19;;;;;;;8.20;1.55;;;;;;;16.37;90.66;102226.63;5046202;28;20049;-76
2022/07/10 00:50:46;;;;;;;12.95;1.60;;;;;;;16.25;90.97;102227.00;5044716;28;20052;-76
2022/07/10 00:53:13;;;;;;;7.85;1.70;;;;;;;16.26;91.28;102235.00;5050727;28;20188;-76
2022/07/10 00:55:41;;;;;;;9.13;2.03;;;;;;;16.17;92.13;102225.44;5046704;28;20110;-76
2022/07/10 00:58:10;;;;;;;5.55;1.70;;;;;;;16.17;93.00;102223.44;5047954;28;20047;-77
2022/07/10 01:00:37;;;;;;;8.95;1.83;;;;;;;16.22;92.61;102222.22;5050855;28;20045;-76
2022/07/10 01:03:04;;;;;;;7.82;1.95;;;;;;;16.27;92.74;102219.81;5051932;28;20222;-77
2022/07/10 01:05:31;;;;;;;5.85;1.50;;;;;;;16.30;93.28;102218.25;5045762;28;20076;-78
2022/07/10 01:07:58;;;;;;;6.32;1.70;;;;;;;16.31;92.43;102223.44;5044615;28;20055;-77
2022/07/10 01:10:24;;;;;;;9.93;1.98;;;;;;;16.32;92.70;102224.22;5049984;28;20059;-77
2022/07/10 01:12:52;;;;;;;5.45;1.73;;;;;;;16.39;92.04;102224.19;5051441;28;20052;-76
2022/07/10 01:15:18;;;;;;;6.03;1.77;;;;;;;16.35;92.59;102213.03;5058789;28;20037;-76
2022/07/10 01:17:45;;;;;;;11.00;2.25;;;;;;;16.41;92.51;102225.41;5065668;28;20067;-76
2022/07/10 01:20:12;;;;;;;7.95;1.92;;;;;;;16.44;92.42;102221.03;5064366;28;20048;-75
2022/07/10 01:22:39;;;;;;;8.63;1.65;;;;;;;16.39;93.00;102208.25;5063739;28;20046;-77
2022/07/10 01:25:06;;;;;;;7.55;1.70;;;;;;;16.36;94.50;102211.03;5055344;28;20055;-76
2022/07/10 01:27:32;;;;;;;12.57;1.90;;;;;;;16.37;93.46;102207.84;5050574;28;20049;-76
2022/07/10 01:29:59;;;;;;;3.90;1.55;;;;;;;16.28;94.92;102204.69;5058949;28;20077;-76
2022/07/10 01:32:25;;;;;;;11.68;3.53;;;;;;;16.26;93.94;102198.69;5060344;28;20048;-76
2022/07/10 01:34:52;;;;;;;6.80;1.75;;;;;;;16.26;93.86;102181.91;5058663;28;20044;-75
2022/07/10 01:37:19;;;;;;;8.27;1.95;;;;;;;16.22;93.86;102189.50;5052903;28;20048;-75
2022/07/10 01:39:45;;;;;;;11.07;1.73;;;;;;;16.28;95.22;102189.91;5064374;28;20056;-77
2022/07/10 01:42:12;;;;;;;12.52;1.80;;;;;;;16.36;94.78;102191.47;5056894;28;20047;-75
2022/07/10 01:44:38;;;;;;;8.57;1.60;;;;;;;16.38;94.75;102189.09;5055858;28;20052;-76
2022/07/10 01:47:05;;;;;;;5.07;1.60;;;;;;;16.40;94.62;102197.88;5064677;28;20086;-76
2022/07/10 01:49:33;;;;;;;10.80;2.30;;;;;;;16.43;93.91;102188.72;5060788;28;20053;-77
2022/07/10 01:52:00;;;;;;;5.60;1.50;;;;;;;16.41;94.08;102185.50;5053491;28;20049;-77
2022/07/10 01:54:26;;;;;;;10.80;2.00;;;;;;;16.37;95.73;102187.50;5065324;28;20143;-76
2022/07/10 01:56:53;;;;;;;7.07;2.15;;;;;;;16.36;96.20;102191.47;5061632;28;20055;-74
2022/07/10 01:59:19;;;;;;;6.57;1.60;;;;;;;16.23;96.67;102185.50;5055522;28;20050;-75
2022/07/10 02:01:46;;;;;;;15.10;2.38;;;;;;;16.29;95.69;102188.69;5061971;28;20040;-75
2022/07/10 02:06:57;;;;;;;8.80;2.05;;;;;;;16.21;96.78;102176.75;5056009;28;20063;-75
2022/07/10 02:09:24;;;;;;;11.65;1.85;;;;;;;16.24;96.57;102180.72;5056282;28;20052;-76
2022/07/10 02:11:50;;;;;;;8.32;1.88;;;;;;;16.20;96.86;102177.16;5049168;28;20044;-76
2022/07/10 02:14:17;;;;;;;9.73;1.80;;;;;;;16.16;97.50;102187.53;5058211;28;20051;-75
2022/07/10 02:16:44;;;;;;;10.80;2.10;;;;;;;16.13;97.08;102186.31;5057376;28;20136;-75
2022/07/10 02:19:11;;;;;;;10.75;2.15;;;;;;;16.10;96.31;102178.75;5064519;28;20794;-75
2022/07/10 02:21:38;;;;;;;7.60;2.03;;;;;;;16.12;97.23;102175.53;5053398;28;20044;-77
2022/07/10 02:24:04;;;;;;;10.73;2.65;;;;;;;16.04;97.19;102176.75;5058429;28;20061;-75
2022/07/10 02:26:31;;;;;;;9.45;1.60;;;;;;;15.96;98.75;102173.16;5065004;28;20048;-75
2022/07/10 02:28:57;;;;;;;8.07;2.20;;;;;;;15.95;98.80;102179.13;5059025;28;20052;-75
2022/07/10 02:31:24;;;;;;;10.45;2.08;;;;;;;15.84;98.79;102170.78;5058034;28;20056;-75
2022/07/10 02:33:50;;;;;;;10.63;2.10;;;;;;;15.83;100.00;102171.19;5056568;28;20424;-76
2022/07/10 02:36:17;;;;;;;8.68;2.20;;;;;;;15.78;100.00;102166.78;5065447;28;20132;-74
2022/07/10 02:38:44;;;;;;;13.10;2.13;;;;;;;15.77;100.00;102165.19;5057217;28;20549;-75
2022/07/10 02:41:10;;;;;;;7.78;2.00;;;;;;;15.75;100.00;102166.78;5052250;28;20081;-75
2022/07/10 02:43:37;;;;;;;10.23;2.75;;;;;;;15.64;100.00;102157.59;5054122;28;20053;-75
2022/07/10 02:46:03;;;;;;;5.05;1.67;;;;;;;15.63;100.00;102167.19;5057495;28;20082;-75
2022/07/10 02:48:30;;;;;;;10.07;1.75;;;;;;;15.52;100.00;102154.00;5055480;28;20131;-75
2022/07/10 02:50:56;;;;;;;10.10;1.95;;;;;;;15.59;100.00;102160.78;5064368;28;20080;-77
2022/07/10 02:53:23;;;;;;;6.95;2.03;;;;;;;15.67;100.00;102162.38;5050315;28;20053;-75
2022/07/10 02:55:49;;;;;;;13.88;1.77;;;;;;;15.69;100.00;102165.59;5061229;28;20135;-78
2022/07/10 02:58:17;;;;;;;7.75;2.10;;;;;;;15.73;100.00;102171.97;5059512;28;20044;-76
2022/07/10 03:00:44;;;;;;;12.23;3.75;;;;;;;15.73;100.00;102153.25;5061753;28;20043;-76
2022/07/10 03:03:11;;;;;;;11.45;2.28;;;;;;;15.73;100.00;102161.63;5053097;28;20057;-75
2022/07/10 03:05:37;;;;;;;11.45;2.08;;;;;;;15.71;100.00;102152.84;5061406;28;20045;-75
2022/07/10 03:08:04;;;;;;;9.98;2.05;;;;;;;15.72;100.00;102162.00;5056618;28;20136;-77
2022/07/10 03:10:30;;;;;;;7.50;2.20;;;;;;;15.75;100.00;102158.41;5057481;28;20649;-76
2022/07/10 03:12:57;;;;;;;13.88;2.10;;;;;;;15.77;100.00;102156.03;5049457;28;20041;-76
2022/07/10 03:15:24;;;;;;;5.50;1.60;;;;;;;15.74;100.00;102154.03;5057816;28;20059;-76
2022/07/10 03:17:50;;;;;;;7.80;1.77;;;;;;;15.70;100.00;102144.84;5063102;28;20048;-76
2022/07/10 03:20:17;;;;;;;11.50;2.20;;;;;;;15.74;100.00;102145.66;5065100;28;20053;-75
2022/07/10 03:22:43;;;;;;;11.23;2.05;;;;;;;15.79;100.00;102145.28;5045883;28;20084;-75
2022/07/10 03:25:10;;;;;;;13.68;2.53;;;;;;;15.82;100.00;102142.47;5058263;28;20049;-76
2022/07/10 03:27:37;;;;;;;13.93;2.40;;;;;;;15.83;100.00;102155.22;5053995;28;20053;-77
2022/07/10 03:30:04;;;;;;;13.57;2.53;;;;;;;15.86;100.00;102148.84;5062869;28;20055;-76
2022/07/10 03:32:30;;;;;;;9.18;1.90;;;;;;;15.85;100.00;102152.03;5065446;28;20052;-77
2022/07/10 03:34:57;;;;;;;8.20;2.05;;;;;;;15.80;100.00;102153.25;5060908;28;20135;-77
2022/07/10 03:37:24;;;;;;;9.93;2.22;;;;;;;15.73;100.00;102150.44;5059399;28;20128;-75
2022/07/10 03:39:51;;;;;;;11.43;2.97;;;;;;;15.70;100.00;102156.00;5063212;28;20139;-75
2022/07/10 03:42:18;;;;;;;12.05;2.05;;;;;;;15.68;100.00;102150.84;5058463;28;20132;-76
2022/07/10 03:44:44;;;;;;;12.05;2.25;;;;;;;15.66;100.00;102152.44;5066573;28;20483;-77
2022/07/10 03:47:11;;;;;;;8.32;1.85;;;;;;;15.69;100.00;102148.84;5060293;28;20056;-77
2022/07/10 03:49:41;;;;;;;11.75;2.10;;;;;;;15.74;100.00;102154.84;5058985;28;20048;-76
2022/07/10 03:52:08;;;;;;;9.13;1.85;;;;;;;15.74;100.00;102159.59;5062947;28;20064;-75
2022/07/10 03:54:34;;;;;;;9.10;2.00;;;;;;;15.70;100.00;102161.59;5065619;28;20201;-75
2022/07/10 03:59:46;;;;;;;10.93;2.03;;;;;;;15.67;100.00;102165.19;5060621;28;20436;-76
2022/07/10 04:02:13;;;;;;;10.48;2.00;;;;;;;15.62;100.00;102165.59;5061349;28;20052;-77
2022/07/10 04:04:40;;;;;;;12.43;2.15;;;;;;;15.60;100.00;102162.38;5059210;28;20048;-76
2022/07/10 04:07:07;;;;;;;12.32;2.75;;;;;;;15.61;100.00;102153.63;5066077;28;20060;-76
2022/07/10 04:09:33;;;;;;;9.55;2.22;;;;;;;15.60;100.00;102162.38;5064539;28;20485;-76
2022/07/10 04:12:00;;;;;;;13.50;2.30;;;;;;;15.56;100.00;102162.41;5061454;28;20087;-77
2022/07/10 04:14:27;;;;;;;13.30;2.40;;;;;;;15.56;100.00;102161.59;5061036;28;20094;-76
2022/07/10 04:16:53;;;;;;;13.48;2.67;;;;;;;15.56;100.00;102167.16;5066548;28;20056;-75
2022/07/10 04:19:21;;;;;;;9.40;1.83;;;;;;;15.51;100.00;102159.97;5067328;28;20055;-77
2022/07/10 04:21:48;;;;;;;13.23;2.10;;;;;;;15.52;100.00;102156.00;5057494;28;20127;-75
2022/07/10 04:24:15;;;;;;;10.32;2.38;;;;;;;15.52;100.00;102159.59;5064939;28;20052;-76
2022/07/10 04:26:43;;;;;;;7.95;2.28;;;;;;;15.48;100.00;102157.19;5067121;28;20131;-78
2022/07/10 04:29:09;;;;;;;8.13;1.92;;;;;;;15.43;100.00;102153.59;5064870;28;20155;-76
2022/07/10 04:31:36;;;;;;;13.32;2.42;;;;;;;15.38;100.00;102153.19;5063277;28;20108;-75
2022/07/10 04:34:03;;;;;;;11.55;2.00;;;;;;;15.36;100.00;102150.78;5067073;28;20045;-75
2022/07/10 04:36:30;;;;;;;12.73;2.20;;;;;;;15.34;100.00;102155.94;5063529;28;20076;-75
2022/07/10 04:38:57;;;;;;;13.30;2.60;;;;;;;15.33;100.00;102154.31;5062966;28;20052;-75
2022/07/10 04:41:23;;;;;;;8.05;2.08;;;;;;;15.45;100.00;102150.41;5059831;28;20777;-75
2022/07/10 04:43:52;;;;;;;10.00;2.20;;;;;;;15.49;100.00;102157.59;5055786;28;20588;-76
2022/07/10 04:46:19;;;;;;;8.52;1.88;;;;;;;15.54;100.00;102161.97;5056976;28;20086;-76
2022/07/10 04:48:46;;;;;;;12.95;2.50;;;;;;;15.48;100.00;102164.38;5067477;28;20456;-76
2022/07/10 04:51:12;;;;;;;13.48;2.40;;;;;;;15.53;100.00;102158.38;5056842;28;20056;-76
2022/07/10 04:53:39;;;;;;;12.45;2.00;;;;;;;15.61;100.00;102152.81;5063904;28;20057;-75
2022/07/10 04:56:05;;;;;;;7.07;2.00;;;;;;;15.69;100.00;102154.44;5063738;28;20099;-76
2022/07/10 04:58:32;;;;;;;4.05;1.80;;;;;;;15.74;100.00;102159.59;5065685;28;20053;-76
2022/07/10 05:00:58;;;;;;;8.30;2.50;;;;;;;15.79;100.00;102164.81;5063766;28;20159;-75
2022/07/10 05:03:25;;;;;;;10.60;2.35;;;;;;;15.83;100.00;102163.59;5054844;28;20057;-77
2022/07/10 05:05:52;;;;;;;4.68;1.80;;;;;;;15.86;100.00;102160.00;5062066;28;20056;-76
2022/07/10 05:08:18;;;;;;;12.85;2.40;;;;;;;15.89;100.00;102164.00;5056767;28;20073;-75
2022/07/10 05:10:45;;;;;;;11.32;2.70;;;;;;;15.92;100.00;102161.19;5063578;28;20637;-76
2022/07/10 05:13:12;;;;;;;10.15;2.15;;;;;;;15.98;100.00;102153.22;5056275;28;20040;-77
2022/07/10 05:15:39;;;;;;;10.52;2.20;;;;;;;16.04;100.00;102160.81;5063848;28;20083;-76
2022/07/10 05:18:05;;;;;;;9.30;2.13;;;;;;;16.11;100.00;102160.00;5067004;28;20052;-77
2022/07/10 05:20:33;;;;;;;9.30;1.95;;;;;;;16.13;100.00;102166.78;5063325;28;20048;-76
2022/07/10 05:23:00;;;;;;;6.45;1.90;;;;;;;16.18;100.00;102163.59;5055105;28;20513;-76
2022/07/10 05:25:30;;;;;;;12.60;1.90;;;;;;;16.24;100.00;102166.78;5056548;28;20058;-77
2022/07/10 05:27:57;;;;;;;13.48;2.25;;;;;;;16.33;100.00;102167.16;5064824;28;20052;-77
2022/07/10 05:30:23;;;;;;;8.77;2.00;;;;;;;16.37;100.00;102167.94;5057454;28;20044;-76
2022/07/10 05:32:50;;;;;;;10.52;2.22;;;;;;;16.37;100.00;102174.31;5058133;28;20044;-76
2022/07/10 05:35:17;;;;;;;13.23;2.60;;;;;;;16.45;100.00;102178.75;5064090;28;20056;-77
2022/07/10 05:37:43;;;;;;;10.40;2.00;;;;;;;16.50;100.00;102185.91;5058112;28;20049;-76
2022/07/10 05:40:10;;;;;;;13.43;1.92;;;;;;;16.44;100.00;102184.72;5064088;28;20155;-76
2022/07/10 05:42:37;;;;;;;16.02;3.10;;;;;;;16.57;100.00;102177.53;5064492;28;20044;-75
2022/07/10 05:45:05;;;;;;;10.32;2.58;;;;;;;16.78;99.75;102172.63;5061611;28;20108;-74
2022/07/10 05:47:33;;;;;;;8.93;1.73;;;;;;;16.95;98.52;102173.78;5059702;28;20139;-75
2022/07/10 05:49:59;;;;;;;8.93;1.77;;;;;;;16.98;95.97;102170.97;5055517;28;20123;-74
2022/07/10 05:52:26;;;;;;;10.73;2.00;;;;;;;17.12;96.48;102178.50;5062383;28;20074;-76
2022/07/10 05:54:53;;;;;;;9.65;1.77;;;;;;;17.19;96.14;102175.66;5066337;28;20052;-78
2022/07/10 05:57:20;;;;;;;10.90;1.88;;;;;;;17.14;95.11;102168.50;5065009;28;20036;-74
2022/07/10 05:59:46;;;;;;;10.52;1.88;;;;;;;17.12;94.69;102164.53;5064638;28;20059;-73
2022/07/10 06:02:13;;;;;;;16.10;2.33;;;;;;;17.10;95.02;102164.13;5065128;28;20052;-73
2022/07/10 06:04:40;;;;;;;10.55;1.85;;;;;;;17.21;94.19;102157.25;5063076;28;20062;-73
2022/07/10 06:07:07;;;;;;;6.70;1.30;;;;;;;17.32;92.67;102169.19;5059254;28;20418;-75
2022/07/10 06:09:33;;;;;;;6.07;1.73;;;;;;;17.44;90.42;102165.16;5065345;28;20103;-77
2022/07/10 06:12:00;;;;;;;10.85;1.50;;;;;;;17.56;90.40;102171.06;5061574;28;20428;-78
2022/07/10 06:14:27;;;;;;;14.05;2.17;;;;;;;17.68;89.62;102169.78;5064225;28;20167;-75
2022/07/10 06:16:53;;;;;;;7.55;1.50;;;;;;;17.75;88.30;102169.72;5065505;28;20114;-78
2022/07/10 06:19:20;;;;;;;5.50;1.33;;;;;;;17.60;85.20;102179.44;5065661;28;20052;-74
2022/07/10 06:21:46;;;;;;;6.80;1.42;;;;;;;17.60;88.13;102173.84;5063514;28;20830;-75
2022/07/10 06:24:13;;;;;;;4.60;1.45;;;;;;;17.64;88.39;102171.81;5066583;28;20052;-75
2022/07/10 06:26:39;;;;;;;6.72;1.90;;;;;;;17.68;88.88;102175.38;5065957;28;20593;-74
2022/07/10 06:29:06;;;;;;;8.68;1.70;;;;;;;17.70;88.66;102172.97;5065968;28;20076;-74
2022/07/10 06:31:33;;;;;;;5.50;1.40;;;;;;;17.72;88.34;102184.56;5062328;28;20044;-75
2022/07/10 06:34:00;;;;;;;8.75;1.65;;;;;;;17.73;89.67;102177.75;5064469;28;20040;-75
2022/07/10 06:36:26;;;;;;;9.07;1.83;;;;;;;17.70;89.22;102181.38;5064454;28;20127;-76
2022/07/10 06:38:59;;;;;;;7.47;1.77;;;;;;;17.62;88.62;102175.03;5065942;28;20135;-77
2022/07/10 06:41:25;;;;;;;10.85;1.88;;;;;;;17.57;88.51;102174.66;5067296;28;20048;-73
2022/07/10 06:43:52;;;;;;;9.13;1.95;;;;;;;17.60;88.63;102180.25;5066888;28;20555;-74
2022/07/10 06:46:18;;;;;;;9.10;1.88;;;;;;;17.36;90.11;102178.38;5064997;28;20561;-77
2022/07/10 06:48:45;;;;;;;12.20;1.50;;;;;;;17.41;91.30;102177.13;5069253;28;20073;-77
2022/07/10 06:51:12;;;;;;;11.25;3.38;;;;;;;17.42;90.52;102171.16;5054387;28;20243;-71
2022/07/10 06:53:44;;;;;;;6.40;2.20;;;;;;;17.54;90.19;102172.69;5061736;28;20106;-74
2022/07/10 06:56:10;;;;;;;5.60;1.35;;;;;;;17.53;89.60;102173.91;5056757;28;20045;-75
2022/07/10 06:58:37;;;;;;;11.70;1.98;;;;;;;17.59;88.97;102178.63;5060749;28;20448;-73
2022/07/10 07:01:04;;;;;;;8.13;1.50;;;;;;;17.61;89.45;102181.03;5059455;28;20135;-75
2022/07/10 07:03:30;;;;;;;9.95;1.67;;;;;;;17.61;88.54;102181.03;5060490;28;20521;-76
2022/07/10 07:05:57;;;;;;;14.65;1.73;;;;;;;17.54;88.95;102178.28;5062102;28;20174;-74
2022/07/10 07:08:24;;;;;;;8.80;1.70;;;;;;;17.50;89.03;102180.31;5054182;28;20147;-72
2022/07/10 07:10:50;;;;;;;9.73;1.70;;;;;;;17.45;89.87;102178.72;5068706;28;20052;-74
2022/07/10 07:13:17;;;;;;;8.25;1.60;;;;;;;17.40;90.56;102181.13;5059504;28;20076;-76
2022/07/10 07:15:50;;;;;;;9.77;1.70;;;;;;;17.41;90.17;102188.31;5066097;28;20044;-73
2022/07/10 07:18:17;;;;;;;9.10;1.77;;;;;;;17.26;90.22;102187.63;5064895;28;20131;-75
2022/07/10 07:23:29;;;;;;;9.55;1.30;;;;;;;17.41;90.26;102182.72;5059787;28;20045;-75
2022/07/10 07:25:56;;;;;;;7.10;1.70;;;;;;;17.48;89.62;102188.31;5065968;28;20055;-72
2022/07/10 07:28:22;;;;;;;9.93;1.60;;;;;;;17.53;90.37;102187.91;5062319;28;20471;-75
2022/07/10 07:30:49;;;;;;;10.18;1.95;;;;;;;17.51;90.53;102193.09;5062100;28;20060;-73
2022/07/10 07:33:16;;;;;;;9.23;1.50;;;;;;;17.52;90.55;102197.50;5067228;28;20123;-74
2022/07/10 07:35:43;;;;;;;9.82;1.88;;;;;;;17.54;90.01;102201.47;5066199;28;20048;-73
2022/07/10 07:38:10;;;;;;;9.52;1.73;;;;;;;17.51;90.12;102198.69;5065035;28;20139;-73
2022/07/10 07:40:37;;;;;;;10.65;2.22;;;;;;;17.49;90.34;102196.28;5060537;28;20535;-73
2022/07/10 07:43:04;;;;;;;6.97;1.60;;;;;;;17.55;91.42;102200.25;5058467;28;20078;-74
2022/07/10 07:45:31;;;;;;;11.30;1.77;;;;;;;17.57;91.45;102197.88;5064630;28;20088;-72
2022/07/10 07:48:01;;;;;;;11.77;2.33;;;;;;;17.60;91.13;102199.03;5066987;28;20811;-73
2022/07/10 07:50:31;;;;;;;6.38;1.70;;;;;;;17.63;90.75;102201.03;5059253;28;20156;-73
2022/07/10 07:53:00;;;;;;;13.45;1.95;;;;;;;17.61;91.77;102207.03;5063992;28;20044;-75
2022/07/10 07:55:28;;;;;;;9.55;2.38;;;;;;;17.59;92.01;102197.47;5063481;28;20048;-74
2022/07/10 07:57:56;;;;;;;9.18;1.55;;;;;;;17.52;92.61;102203.09;5063792;28;20136;-72
2022/07/10 08:00:25;;;;;;;6.38;1.50;;;;;;;17.53;93.12;102202.69;5062639;28;20048;-72
2022/07/10 08:02:53;;;;;;;11.45;2.13;;;;;;;17.63;92.96;102204.63;5063708;28;20235;-72
2022/07/10 08:05:23;;;;;;;9.88;1.70;;;;;;;17.60;93.42;102208.25;5061473;28;20076;-73
2022/07/10 08:07:52;;;;;;;16.08;2.65;;;;;;;17.56;93.99;102206.66;5057769;28;20044;-75
2022/07/10 08:10:21;;;;;;;8.05;1.30;;;;;;;17.12;97.79;102204.47;5067849;28;20045;-74
2022/07/10 08:12:49;;;;;;;15.32;2.25;;;;;;;17.10;99.40;102206.06;5065157;28;20567;-72
2022/07/10 08:15:19;;;;;;;8.18;1.90;;;;;;;17.01;100.00;102197.34;5059250;28;20393;-73
2022/07/10 08:18:04;;;;;;;6.68;1.88;;;;;;;16.75;100.00;102200.63;5050299;28;20056;-74
2022/07/10 08:20:31;;;;;;;9.32;2.00;;;;;;;16.82;100.00;102206.19;5056175;28;20053;-78
2022/07/10 08:22:58;;;;;;;12.13;2.10;;;;;;;16.80;100.00;102200.19;5058145;28;20064;-73
2022/07/10 08:25:29;;;;;;;8.90;1.90;;;;;;;16.93;100.00;102201.34;5066052;28;20060;-73
2022/07/10 08:28:03;;;;;;;11.98;2.28;;;;;;;17.04;100.00;102202.91;5055563;28;20055;-77
2022/07/10 08:30:30;;;;;;;11.00;2.35;;;;;;;17.15;100.00;102200.06;5072143;28;20075;-74
2022/07/10 08:32:57;;;;;;;12.30;2.17;;;;;;;17.08;100.00;102198.09;5054727;28;20138;-72
2022/07/10 08:35:23;;;;;;;12.95;2.38;;;;;;;17.17;100.00;102206.03;5055317;28;20076;-74
2022/07/10 08:37:50;;;;;;;8.10;2.25;;;;;;;17.19;100.00;102198.03;5059849;28;20799;-76
2022/07/10 08:40:18;;;;;;;6.25;1.70;;;;;;;17.05;100.00;102207.28;5064171;28;20667;-73
2022/07/10 08:42:45;;;;;;;14.55;2.90;;;;;;;16.99;100.00;102194.94;5053876;28;20098;-75
2022/07/10 08:45:13;;;;;;;13.10;2.95;;;;;;;17.05;100.00;102192.53;5065850;28;20147;-75
2022/07/10 08:47:44;;;;;;;10.18;2.58;;;;;;;16.98;100.00;102198.16;5056694;28;20648;-74
2022/07/10 08:50:22;;;;;;;8.27;2.72;;;;;;;17.01;100.00;102202.94;5062344;28;20045;-76
2022/07/10 08:52:57;;;;;;;12.25;2.75;;;;;;;17.14;100.00;102206.84;5063367;28;20102;-73
2022/07/10 08:55:25;;;;;;;4.95;2.10;;;;;;;17.02;100.00;102201.72;5061958;28;20040;-76
2022/07/10 08:57:55;;;;;;;10.68;2.20;;;;;;;17.07;100.00;102199.28;5056554;28;20128;-75
2022/07/10 09:00:23;;;;;;;8.40;2.25;;;;;;;17.19;100.00;102193.25;5057980;28;20068;-76
2022/07/10 09:02:50;;;;;;;10.27;2.35;;;;;;;17.35;100.00;102192.78;5053210;28;20252;-74
2022/07/10 09:05:16;;;;;;;8.77;2.40;;;;;;;17.22;100.00;102191.63;5058720;28;20067;-72
2022/07/10 09:07:43;;;;;;;6.10;1.70;;;;;;;17.03;100.00;102190.13;5063886;28;20062;-70
2022/07/10 09:10:11;;;;;;;6.70;2.15;;;;;;;17.14;100.00;102195.66;5051432;28;20056;-68
2022/07/10 09:12:53;;;;;;;10.48;2.45;;;;;;;16.96;100.00;102190.16;5056955;28;20080;-69
2022/07/10 09:15:25;;;;;;;8.02;2.10;;;;;;;17.18;100.00;102191.66;5055849;28;20526;-74
2022/07/10 09:17:57;;;;;;;8.52;2.10;;;;;;;17.24;100.00;102183.63;5055571;28;20045;-73
2022/07/10 09:20:29;;;;;;;11.15;2.30;;;;;;;17.49;100.00;102185.09;5051639;28;20048;-73
2022/07/10 09:23:14;;;;;;;5.43;1.70;;;;;;;17.69;100.00;102188.19;5064261;28;20064;-72
2022/07/10 09:25:40;;;;;;;9.32;2.47;;;;;;;17.85;100.00;102189.25;5056918;28;20052;-73
2022/07/10 09:28:07;;;;;;;8.57;2.28;;;;;;;17.88;100.00;102196.03;5062556;28;20580;-72
2022/07/10 09:30:38;;;;;;;6.60;2.20;;;;;;;17.98;100.00;102189.56;5066164;28;20049;-72
2022/07/10 09:33:14;;;;;;;11.70;2.90;;;;;;;18.15;100.00;102177.41;5066585;28;20497;-75
2022/07/10 09:36:09;;;;;;;8.55;2.03;;;;;;;18.35;100.00;102178.41;5058623;28;20056;-75
2022/07/10 09:38:44;;;;;;;10.10;2.55;;;;;;;18.58;100.00;102184.22;5053291;28;20563;-74
2022/07/10 09:41:22;;;;;;;9.27;2.30;;;;;;;18.81;100.00;102184.34;5079024;28;20056;-75
2022/07/10 09:43:57;;;;;;;6.25;1.48;;;;;;;18.33;100.00;102188.44;5065963;28;20072;-72
2022/07/10 09:46:38;;;;;;;6.40;1.80;;;;;;;18.05;100.00;102183.13;5059729;28;20099;-74
2022/07/10 09:49:05;;;;;;;13.13;2.58;;;;;;;18.03;100.00;102187.09;5066489;28;20036;-71
2022/07/10 09:51:34;;;;;;;3.58;1.85;;;;;;;18.07;100.00;102181.47;5066659;28;20118;-76
2022/07/10 09:54:04;;;;;;;4.65;2.00;;;;;;;18.17;100.00;102171.38;5068042;28;20044;-74
2022/07/10 09:56:42;;;;;;;8.95;2.17;;;;;;;18.22;100.00;102173.75;5064798;28;20127;-74
2022/07/10 09:59:15;;;;;;;4.28;1.92;;;;;;;18.45;100.00;102177.53;5064779;28;20056;-73
2022/07/10 10:01:46;;;;;;;8.70;2.50;;;;;;;18.58;100.00;102175.81;5055773;28;20144;-72
2022/07/10 10:04:15;;;;;;;12.75;2.95;;;;;;;18.72;100.00;102172.84;5049690;28;20048;-77
2022/07/10 10:06:45;;;;;;;11.30;2.25;;;;;;;18.78;100.00;102165.56;5050305;28;20138;-76
2022/07/10 10:09:15;;;;;;;11.05;2.88;;;;;;;18.79;100.00;102163.53;5049413;28;20131;-77
2022/07/10 10:11:44;;;;;;;7.50;2.63;;;;;;;18.65;100.00;102167.31;5050028;28;20495;-74
2022/07/10 10:14:13;;;;;;;13.45;2.95;;;;;;;18.71;100.00;102168.44;5063754;28;20070;-74
2022/07/10 10:16:39;;;;;;;10.05;2.90;;;;;;;18.61;100.00;102166.56;5056343;28;20535;-74
2022/07/10 10:21:57;;;;;;;9.32;2.55;;;;;;;18.14;100.00;102159.00;5054798;28;20040;-74
2022/07/10 10:24:25;;;;;;;9.30;3.13;;;;;;;17.97;100.00;102165.56;5063296;28;20140;-75
2022/07/10 10:26:52;;;;;;;11.30;3.83;;;;;;;17.93;100.00;102153.59;5058660;28;20055;-74
2022/07/10 10:29:19;;;;;;;13.43;3.70;;;;;;;17.99;100.00;102163.16;5058481;28;20053;-75
2022/07/10 10:31:46;;;;;;;10.75;3.45;;;;;;;17.90;100.00;102162.81;5057885;28;20531;-74
2022/07/10 10:34:17;;;;;;;2.47;1.33;;;;;;;17.51;100.00;102153.91;5059879;28;20045;-72
2022/07/10 10:36:45;;;;;;;16.10;5.18;;;;;;;17.50;100.00;102158.72;5057637;28;20072;-72
2022/07/10 10:39:16;;;;;;;17.50;8.52;;;;;;;17.48;100.00;102160.31;5060629;28;20052;-75
2022/07/10 10:41:51;;;;;;;8.18;3.50;;;;;;;17.41;100.00;102157.53;5061142;28;20165;-75
2022/07/10 10:44:17;;;;;;;20.63;8.93;;;;;;;17.58;100.00;102156.66;5062385;28;20095;-74
2022/07/10 10:46:50;;;;;;;19.35;9.75;;;;;;;17.64;100.00;102163.41;5057159;28;20135;-73
2022/07/10 10:49:20;;;;;;;18.98;10.13;;;;;;;17.76;100.00;102158.13;5055050;28;20056;-75
2022/07/10 10:52:06;;;;;;;18.48;10.27;;;;;;;17.95;100.00;102145.56;5055652;28;20049;-72
2022/07/10 10:54:56;;;;;;;17.55;8.63;;;;;;;18.39;100.00;102145.56;5061194;28;20704;-72
2022/07/10 10:57:39;;;;;;;16.95;8.95;;;;;;;18.69;100.00;102142.03;5056592;28;20160;-75
2022/07/10 11:00:07;;;;;;;16.08;7.30;;;;;;;18.82;100.00;102129.84;5057693;28;20616;-76
2022/07/10 11:02:42;;;;;;;12.07;6.35;;;;;;;18.91;100.00;102143.34;5072895;28;20072;-75
2022/07/10 11:05:12;;;;;;;12.83;5.63;;;;;;;18.78;100.00;102140.31;5058052;28;20043;-72
2022/07/10 11:07:55;;;;;;;14.02;5.63;;;;;;;18.57;100.00;102132.16;5055630;28;20080;-72
2022/07/10 11:10:44;;;;;;;11.77;6.03;;;;;;;18.76;100.00;102134.31;5058552;28;20059;-71
2022/07/10 11:13:17;;;;;;;10.70;4.40;;;;;;;18.66;100.00;102129.63;5056283;28;20142;-75
2022/07/10 11:15:46;;;;;;;10.60;4.95;;;;;;;18.59;100.00;102134.56;5058507;28;20175;-73
2022/07/10 11:18:14;;;;;;;4.70;2.00;;;;;;;18.41;100.00;102133.94;5057176;28;20044;-75
2022/07/10 11:20:50;;;;;;;10.00;4.75;;;;;;;18.48;100.00;102136.66;5058575;28;20052;-72
2022/07/10 11:23:34;;;;;;;10.95;4.68;;;;;;;18.57;100.00;102126.56;5048667;28;20048;-77
2022/07/10 11:26:12;;;;;;;11.05;4.00;;;;;;;18.51;100.00;102127.41;5063526;28;20432;-72
2022/07/10 11:28:57;;;;;;;13.52;5.30;;;;;;;18.52;100.00;102127.00;5063171;28;20660;-72
2022/07/10 11:31:25;;;;;;;10.55;4.78;;;;;;;18.70;100.00;102127.56;5056459;28;20136;-73
2022/07/10 11:33:54;;;;;;;11.40;4.43;;;;;;;18.71;100.00;102126.38;5057343;28;20049;-75